Hadley, Kentucky
Current Conditions -  °F | °C
As of 6:53 PM on Thursday 27 Nov 2014 (Local Time) from KBWG Reporting Station
Overcast Overcast  
Wind Chill: 25°   Ceiling: 3400
Heat Index: 31°   Visibility: 10mi
Dew Point: 20°   Wind: 6mph
Humidity: 64%   Direction: 320°NW
Pressure: 30.48"   Gusts: NA
Location:  37.06°N, 86.61°W
Report Text: KBWG 280053Z AUTO 32005KT 10SM FEW024 OVC034 M01/M07 A3048 RMK AO2 SLP325 T10061067
Loading
Personal Weather Stations






























Interactive Weather Map New forecast layout! Learn more

10-Day Weather Forecast

Advertisements
Track Severe Weather on mobile